createdAt,value
2019-05-02T00:01:01.264Z,19.70
2019-05-02T00:03:35.982Z,20.10
2019-05-02T00:06:09.322Z,19.03
2019-05-02T00:08:40.857Z,19.47
2019-05-02T00:11:13.367Z,19.73
2019-05-02T00:13:45.360Z,19.53
2019-05-02T00:16:17.007Z,19.37
2019-05-02T00:18:48.285Z,19.27
2019-05-02T00:21:20.328Z,18.57
2019-05-02T00:23:51.625Z,18.40
2019-05-02T00:26:24.538Z,18.83
2019-05-02T00:28:56.356Z,18.93
2019-05-02T00:31:28.053Z,19.20
2019-05-02T00:33:59.415Z,19.60
2019-05-02T00:36:30.772Z,20.00
2019-05-02T00:39:02.566Z,19.67
2019-05-02T00:41:38.447Z,19.53
2019-05-02T00:44:11.074Z,19.63
2019-05-02T00:46:42.085Z,19.37
2019-05-02T00:49:13.580Z,18.83
2019-05-02T00:51:45.016Z,18.93
2019-05-02T00:54:19.145Z,18.70
2019-05-02T00:56:49.579Z,18.70
2019-05-02T00:59:20.878Z,19.90
2019-05-02T01:02:00.087Z,20.00
2019-05-02T01:04:36.854Z,20.60
2019-05-02T01:07:09.224Z,19.87
2019-05-02T01:09:42.118Z,20.30
2019-05-02T01:12:25.803Z,19.77
2019-05-02T01:14:46.583Z,20.10
2019-05-02T01:17:18.249Z,20.47
2019-05-02T01:19:51.504Z,20.03
2019-05-02T01:22:23.042Z,20.33
2019-05-02T01:24:54.739Z,19.07
2019-05-02T01:27:41.144Z,20.03
2019-05-02T01:30:30.260Z,20.67
2019-05-02T01:33:07.846Z,20.67
2019-05-02T01:35:50.841Z,19.97
2019-05-02T01:38:31.801Z,20.13
2019-05-02T01:41:04.033Z,20.37
2019-05-02T01:43:35.708Z,20.37
2019-05-02T01:46:07.160Z,22.97
2019-05-02T01:48:40.023Z,22.90
2019-05-02T01:51:12.135Z,22.30
2019-05-02T01:53:43.526Z,21.50
2019-05-02T01:56:15.213Z,24.20
2019-05-02T01:58:47.080Z,22.73
2019-05-02T02:01:21.391Z,21.73
2019-05-02T02:03:51.837Z,21.87
2019-05-02T02:06:23.317Z,22.13
2019-05-02T02:08:55.067Z,21.17
2019-05-02T02:11:28.499Z,20.87
2019-05-02T02:13:59.559Z,22.03
2019-05-02T02:16:35.228Z,19.67
2019-05-02T02:19:22.182Z,18.67
2019-05-02T02:22:23.644Z,18.43
2019-05-02T02:25:14.301Z,18.17
2019-05-02T02:27:45.517Z,18.37
2019-05-02T02:30:17.892Z,20.73
2019-05-02T02:32:50.376Z,19.17
2019-05-02T02:35:21.791Z,19.40
2019-05-02T02:37:55.712Z,20.17
2019-05-02T02:40:32.785Z,20.03
2019-05-02T02:43:12.791Z,20.47
2019-05-02T02:46:09.505Z,21.07
2019-05-02T02:48:42.671Z,19.80
2019-05-02T02:51:22.165Z,21.43
2019-05-02T02:53:47.389Z,20.27
2019-05-02T02:56:18.882Z,19.23
2019-05-02T02:58:50.163Z,19.57
2019-05-02T03:01:28.723Z,19.53
2019-05-02T03:03:54.902Z,19.20
2019-05-02T03:06:26.491Z,19.37
2019-05-02T03:08:57.917Z,20.93
2019-05-02T03:11:35.124Z,22.17
2019-05-02T03:14:12.723Z,21.70
2019-05-02T03:16:47.117Z,21.07
2019-05-02T03:19:21.089Z,20.67
2019-05-02T03:21:54.251Z,20.83
2019-05-02T03:24:27.984Z,21.57
2019-05-02T03:26:59.396Z,20.83
2019-05-02T03:29:41.129Z,20.60
2019-05-02T03:32:14.997Z,21.57
2019-05-02T03:34:47.547Z,20.50
2019-05-02T03:37:13.854Z,22.10
2019-05-02T03:39:49.546Z,20.43
2019-05-02T03:42:18.058Z,20.50
2019-05-02T03:44:56.989Z,19.67
2019-05-02T03:47:23.039Z,20.27
2019-05-02T03:49:54.478Z,20.40
2019-05-02T03:52:25.982Z,20.23
2019-05-02T03:54:57.583Z,21.47
2019-05-02T03:57:33.387Z,22.00
2019-05-02T04:00:02.844Z,21.80
2019-05-02T04:02:35.329Z,22.27
2019-05-02T04:05:07.018Z,21.27
2019-05-02T04:07:40.843Z,22.60
2019-05-02T04:10:20.182Z,22.13
2019-05-02T04:12:53.238Z,22.50
2019-05-02T04:15:20.589Z,22.23
2019-05-02T04:17:54.678Z,22.27
2019-05-02T04:20:26.294Z,22.30
2019-05-02T04:23:06.794Z,23.37
2019-05-02T04:25:38.418Z,23.37
2019-05-02T04:28:12.055Z,23.30
2019-05-02T04:30:45.132Z,24.27
2019-05-02T04:33:16.159Z,24.07
2019-05-02T04:35:47.595Z,24.17
2019-05-02T04:38:21.421Z,24.80
2019-05-02T04:40:52.409Z,26.00
2019-05-02T04:43:28.592Z,24.47
2019-05-02T04:46:00.132Z,24.90
2019-05-02T04:48:34.551Z,24.67
2019-05-02T04:51:10.285Z,24.70
2019-05-02T04:53:44.360Z,23.33
2019-05-02T04:56:12.489Z,24.87
2019-05-02T04:58:44.300Z,23.60
2019-05-02T05:01:15.664Z,25.13
2019-05-02T05:03:49.263Z,26.17
2019-05-02T05:06:20.170Z,26.77
2019-05-02T05:08:51.691Z,26.80
2019-05-02T05:11:24.959Z,26.13
2019-05-02T05:13:58.992Z,28.77
2019-05-02T05:16:28.855Z,28.23
2019-05-02T05:19:00.224Z,29.20
2019-05-02T05:21:31.535Z,29.03
2019-05-02T05:24:24.875Z,29.23
2019-05-02T05:26:57.818Z,27.27
2019-05-02T05:29:31.164Z,25.53
2019-05-02T05:32:07.855Z,23.60
2019-05-02T05:34:37.990Z,22.90
2019-05-02T05:37:13.434Z,22.87
2019-05-02T05:39:47.940Z,22.53
2019-05-02T05:42:17.815Z,23.13
2019-05-02T05:44:50.560Z,20.97
2019-05-02T05:47:21.739Z,21.57
2019-05-02T05:49:57.590Z,20.50
2019-05-02T05:52:28.269Z,22.00
2019-05-02T05:55:00.115Z,23.47
2019-05-02T05:57:31.420Z,21.97
2019-05-02T06:00:11.938Z,20.60
2019-05-02T06:02:52.349Z,21.33
2019-05-02T06:05:10.707Z,22.83
2019-05-02T06:07:44.947Z,19.40
2019-05-02T06:10:15.386Z,17.70
2019-05-02T06:12:47.249Z,18.53
2019-05-02T06:15:18.797Z,17.13
2019-05-02T06:17:50.065Z,18.33
2019-05-02T06:20:25.758Z,19.03
2019-05-02T06:22:59.549Z,19.43
2019-05-02T06:25:34.160Z,16.90
2019-05-02T06:28:05.319Z,17.43
2019-05-02T06:30:34.319Z,17.87
2019-05-02T06:33:06.705Z,16.27
2019-05-02T06:35:38.542Z,16.47
2019-05-02T06:38:09.838Z,16.60
2019-05-02T06:40:44.713Z,16.97
2019-05-02T06:43:15.453Z,16.00
2019-05-02T06:45:46.951Z,15.33
2019-05-02T06:48:19.112Z,14.83
2019-05-02T06:50:51.012Z,15.40
2019-05-02T06:53:24.013Z,14.63
2019-05-02T06:55:55.718Z,15.37
2019-05-02T06:58:27.110Z,14.73
2019-05-02T07:00:59.172Z,15.77
2019-05-02T07:03:30.821Z,15.10
2019-05-02T07:06:02.916Z,14.57
2019-05-02T07:08:35.739Z,14.00
2019-05-02T07:11:07.499Z,13.63
2019-05-02T07:13:41.877Z,13.97
2019-05-02T07:16:36.883Z,13.93
2019-05-02T07:19:16.254Z,14.43
2019-05-02T07:21:46.436Z,13.83
2019-05-02T07:24:17.797Z,14.07
2019-05-02T07:26:52.182Z,13.70
2019-05-02T07:29:23.152Z,14.40
2019-05-02T07:31:54.712Z,14.43
2019-05-02T07:34:26.129Z,13.70
2019-05-02T07:36:57.871Z,13.10
2019-05-02T07:39:29.545Z,12.43
2019-05-02T07:42:05.866Z,12.23
2019-05-02T07:44:34.549Z,12.80
2019-05-02T07:47:06.068Z,12.77
2019-05-02T07:49:37.916Z,12.13
2019-05-02T07:52:09.351Z,12.40
2019-05-02T07:54:40.707Z,11.80
2019-05-02T07:57:12.786Z,11.80
2019-05-02T07:59:44.187Z,11.57
2019-05-02T08:02:15.658Z,11.93
2019-05-02T08:04:47.294Z,11.50
2019-05-02T08:07:21.124Z,11.93
2019-05-02T08:09:51.997Z,11.70
2019-05-02T08:12:23.405Z,12.20
2019-05-02T08:14:54.672Z,11.23
2019-05-02T08:17:26.184Z,11.90
2019-05-02T08:19:57.917Z,11.67
2019-05-02T08:22:29.221Z,11.57
2019-05-02T08:25:00.881Z,12.67
2019-05-02T08:27:48.458Z,11.63
2019-05-02T08:30:24.865Z,11.70
2019-05-02T08:32:56.396Z,12.17
2019-05-02T08:35:28.351Z,12.10
2019-05-02T08:38:00.244Z,11.80
2019-05-02T08:40:31.902Z,11.63
2019-05-02T08:43:08.625Z,11.77
2019-05-02T08:45:38.126Z,12.17
2019-05-02T08:48:09.720Z,11.63
2019-05-02T08:50:41.316Z,12.33
2019-05-02T08:53:14.271Z,11.63
2019-05-02T08:55:46.743Z,11.57
2019-05-02T08:58:18.509Z,11.33
2019-05-02T09:00:50.054Z,11.95
2019-05-02T09:03:21.554Z,11.43
2019-05-02T09:06:05.364Z,11.57
2019-05-02T09:08:28.854Z,11.50
2019-05-02T09:11:01.511Z,11.47
2019-05-02T09:13:33.144Z,11.40
2019-05-02T09:16:06.026Z,11.53
2019-05-02T09:18:42.384Z,10.90
2019-05-02T09:21:12.560Z,11.25
2019-05-02T09:23:44.397Z,11.90
2019-05-02T09:26:16.493Z,10.80
2019-05-02T09:28:48.668Z,11.00
2019-05-02T09:31:22.632Z,10.95
2019-05-02T09:33:55.687Z,11.57
2019-05-02T09:36:27.156Z,10.85
2019-05-02T09:38:58.551Z,12.00
2019-05-02T09:41:32.486Z,11.38
2019-05-02T09:44:09.006Z,10.70
2019-05-02T09:46:38.918Z,10.85
2019-05-02T09:49:15.763Z,11.00
2019-05-02T09:51:45.586Z,10.35
2019-05-02T09:54:23.034Z,9.75
2019-05-02T09:56:54.535Z,10.40
2019-05-02T09:59:33.122Z,10.50
2019-05-02T10:02:08.536Z,10.08
2019-05-02T10:04:43.494Z,8.90
2019-05-02T10:07:15.533Z,9.48
2019-05-02T10:09:46.987Z,9.25
2019-05-02T10:12:18.502Z,9.48
2019-05-02T10:14:50.161Z,9.50
2019-05-02T10:17:23.186Z,8.70
2019-05-02T10:19:57.109Z,9.03
2019-05-02T10:22:33.721Z,8.08
2019-05-02T10:25:02.563Z,7.78
2019-05-02T10:27:33.975Z,8.23
2019-05-02T10:30:11.763Z,6.35
2019-05-02T10:32:39.802Z,6.62
2019-05-02T10:35:14.768Z,7.17
2019-05-02T10:37:46.195Z,7.42
2019-05-02T10:40:17.700Z,7.20
2019-05-02T10:42:49.006Z,7.72
2019-05-02T10:45:22.408Z,7.07
2019-05-02T10:47:53.635Z,6.47
2019-05-02T10:50:29.435Z,6.42
2019-05-02T10:53:05.367Z,7.92
2019-05-02T10:55:33.874Z,8.38
2019-05-02T10:58:05.891Z,8.60
2019-05-02T11:00:38.978Z,8.40
2019-05-02T11:03:16.297Z,8.37
2019-05-02T11:05:52.862Z,8.07
2019-05-02T11:08:24.781Z,7.60
2019-05-02T11:10:57.408Z,7.57
2019-05-02T11:13:53.359Z,7.40
2019-05-02T11:16:37.115Z,8.00
2019-05-02T11:19:14.657Z,8.87
2019-05-02T11:21:55.337Z,8.90
2019-05-02T11:24:19.306Z,8.77
2019-05-02T11:26:52.684Z,9.03
2019-05-02T11:29:25.310Z,9.63
2019-05-02T11:31:56.759Z,9.27
2019-05-02T11:34:28.632Z,9.63
2019-05-02T11:37:01.747Z,8.87
2019-05-02T11:39:42.337Z,9.23
2019-05-02T11:42:06.923Z,9.33
2019-05-02T11:44:42.207Z,10.27
2019-05-02T11:47:17.316Z,9.97
2019-05-02T11:49:52.087Z,10.67
2019-05-02T11:52:22.556Z,10.43
2019-05-02T11:54:55.536Z,10.03
2019-05-02T11:57:30.699Z,9.80
2019-05-02T12:00:04.937Z,9.80
2019-05-02T12:02:58.246Z,9.47
2019-05-02T12:05:35.851Z,9.67
2019-05-02T12:08:12.201Z,9.97
2019-05-02T12:10:45.373Z,9.27
2019-05-02T12:13:17.210Z,9.80
2019-05-02T12:15:48.476Z,10.37
2019-05-02T12:18:23.158Z,9.30
2019-05-02T12:20:54.020Z,9.37
2019-05-02T12:23:25.304Z,9.65
2019-05-02T12:25:57.350Z,9.90
2019-05-02T12:28:32.358Z,9.73
2019-05-02T12:31:07.979Z,8.93
2019-05-02T12:33:42.530Z,8.73
2019-05-02T12:36:14.398Z,8.15
2019-05-02T12:38:47.034Z,8.60
2019-05-02T12:41:22.332Z,7.72
2019-05-02T12:43:52.477Z,8.03
2019-05-02T12:46:24.176Z,8.18
2019-05-02T12:48:56.099Z,8.20
2019-05-02T12:51:27.538Z,7.70
2019-05-02T12:53:58.989Z,6.83
2019-05-02T12:56:32.358Z,7.08
2019-05-02T12:59:05.364Z,6.77
2019-05-02T13:01:37.276Z,6.90
2019-05-02T13:04:12.456Z,6.60
2019-05-02T13:06:43.681Z,6.03
2019-05-02T13:09:15.096Z,6.55
2019-05-02T13:12:08.371Z,6.62
2019-05-02T13:14:39.739Z,6.17
2019-05-02T13:17:12.143Z,6.33
2019-05-02T13:19:55.803Z,5.62
2019-05-02T13:22:34.586Z,5.65
2019-05-02T13:25:12.934Z,5.65
2019-05-02T13:27:48.184Z,5.83
2019-05-02T13:30:42.872Z,6.00
2019-05-02T13:33:13.715Z,5.87
2019-05-02T13:35:48.609Z,5.70
2019-05-02T13:38:22.939Z,5.83
2019-05-02T13:40:54.662Z,5.40
2019-05-02T13:43:29.648Z,5.40
2019-05-02T13:46:14.711Z,5.10
2019-05-02T13:48:46.249Z,5.92
2019-05-02T13:51:17.588Z,5.45
2019-05-02T13:53:57.931Z,5.70
2019-05-02T13:56:52.796Z,5.30
2019-05-02T13:59:24.475Z,5.40
2019-05-02T14:01:55.978Z,5.40
2019-05-02T14:04:28.498Z,5.58
2019-05-02T14:07:00.233Z,6.03
2019-05-02T14:10:02.306Z,5.65
2019-05-02T14:12:58.128Z,5.87
2019-05-02T14:15:39.017Z,5.40
2019-05-02T14:18:12.420Z,6.45
2019-05-02T14:20:43.940Z,7.12
2019-05-02T14:23:15.295Z,7.10
2019-05-02T14:25:47.381Z,7.67
2019-05-02T14:28:19.015Z,7.70
2019-05-02T14:30:52.367Z,8.38
2019-05-02T14:33:25.267Z,7.60
2019-05-02T14:35:56.944Z,7.87
2019-05-02T14:38:28.292Z,7.03
2019-05-02T14:41:08.450Z,8.18
2019-05-02T14:43:52.581Z,7.65
2019-05-02T14:46:28.839Z,7.72
2019-05-02T14:48:59.216Z,7.67
2019-05-02T14:51:32.688Z,7.40
2019-05-02T14:54:08.210Z,7.05
2019-05-02T14:56:48.148Z,7.28
2019-05-02T14:59:20.223Z,6.92
2019-05-02T15:01:57.899Z,7.00
2019-05-02T15:04:28.382Z,7.20
2019-05-02T15:07:01.912Z,6.72
2019-05-02T15:09:36.109Z,6.72
2019-05-02T15:12:13.935Z,6.58
2019-05-02T15:14:40.029Z,6.92
2019-05-02T15:17:12.180Z,6.45
2019-05-02T15:19:43.772Z,8.15
2019-05-02T15:22:15.135Z,8.00
2019-05-02T15:24:46.342Z,8.35
2019-05-02T15:27:18.289Z,8.40
2019-05-02T15:29:53.938Z,8.23
2019-05-02T15:32:44.963Z,8.20
2019-05-02T15:35:31.775Z,7.97
2019-05-02T15:38:06.732Z,7.97
2019-05-02T15:40:48.123Z,8.20
2019-05-02T15:43:09.931Z,7.83
2019-05-02T15:45:44.150Z,7.70
2019-05-02T15:48:22.660Z,8.03
2019-05-02T15:50:52.122Z,8.47
2019-05-02T15:53:44.669Z,7.57
2019-05-02T15:56:20.013Z,8.83
2019-05-02T15:58:49.650Z,8.63
2019-05-02T16:01:32.166Z,9.67
2019-05-02T16:04:04.992Z,9.37
2019-05-02T16:06:36.405Z,9.20
2019-05-02T16:09:09.494Z,9.20
2019-05-02T16:11:43.462Z,9.20
2019-05-02T16:14:15.130Z,8.70
2019-05-02T16:16:46.409Z,8.73
2019-05-02T16:19:27.186Z,8.40
2019-05-02T16:22:08.955Z,9.13
2019-05-02T16:24:43.875Z,9.17
2019-05-02T16:27:16.415Z,8.30
2019-05-02T16:29:47.249Z,8.67
2019-05-02T16:32:37.889Z,8.83
2019-05-02T16:35:13.535Z,8.43
2019-05-02T16:37:46.698Z,9.00
2019-05-02T16:40:23.830Z,8.77
2019-05-02T16:42:51.854Z,8.50
2019-05-02T16:45:23.884Z,8.27
2019-05-02T16:48:00.328Z,8.53
2019-05-02T16:50:35.109Z,8.43
2019-05-02T16:53:02.403Z,8.47
2019-05-02T16:55:34.078Z,8.00
2019-05-02T16:58:07.273Z,9.00
2019-05-02T17:00:42.566Z,8.73
2019-05-02T17:03:12.729Z,10.10
2019-05-02T17:05:48.000Z,9.80
2019-05-02T17:08:27.423Z,9.13
2019-05-02T17:11:15.806Z,9.58
2019-05-02T17:13:47.292Z,9.23
2019-05-02T17:16:18.608Z,10.17
2019-05-02T17:18:52.977Z,9.98
2019-05-02T17:21:26.858Z,9.93
2019-05-02T17:23:56.550Z,9.53
2019-05-02T17:26:27.899Z,10.07
2019-05-02T17:28:59.261Z,10.30
2019-05-02T17:31:32.257Z,10.10
2019-05-02T17:34:03.672Z,11.30
2019-05-02T17:36:35.150Z,10.40
2019-05-02T17:39:08.664Z,10.57
2019-05-02T17:41:42.260Z,10.63
2019-05-02T17:44:18.513Z,11.73
2019-05-02T17:46:50.769Z,11.67
2019-05-02T17:49:23.918Z,11.57
2019-05-02T17:52:18.624Z,11.93
2019-05-02T17:54:44.460Z,11.73
2019-05-02T17:57:16.133Z,11.43
2019-05-02T17:59:47.680Z,12.03
2019-05-02T18:02:19.391Z,12.60
2019-05-02T18:04:52.143Z,12.10
2019-05-02T18:07:31.125Z,13.17
2019-05-02T18:09:57.177Z,13.13
2019-05-02T18:12:28.602Z,13.67
2019-05-02T18:15:01.407Z,13.53
2019-05-02T18:17:33.741Z,18.13
2019-05-02T18:20:06.740Z,11.17
2019-05-02T18:22:39.901Z,7.80
2019-05-02T18:25:16.269Z,7.30
2019-05-02T18:27:45.468Z,5.80
2019-05-02T18:30:26.717Z,5.53
2019-05-02T18:32:57.911Z,6.53
2019-05-02T18:35:28.434Z,7.90
2019-05-02T18:38:00.172Z,8.67
2019-05-02T18:40:32.144Z,7.93
2019-05-02T18:43:05.332Z,6.33
2019-05-02T18:45:37.001Z,7.40
2019-05-02T18:48:08.536Z,7.00
2019-05-02T18:50:46.946Z,8.13
2019-05-02T18:53:18.685Z,8.30
2019-05-02T18:55:51.887Z,8.83
2019-05-02T18:58:23.694Z,9.10
2019-05-02T19:00:55.353Z,10.27
2019-05-02T19:03:27.385Z,11.27
2019-05-02T19:06:02.143Z,11.93
2019-05-02T19:08:45.790Z,11.23
2019-05-02T19:11:12.628Z,11.50
2019-05-02T19:13:44.559Z,10.87
2019-05-02T19:16:19.267Z,11.20
2019-05-02T19:18:54.489Z,10.67
2019-05-02T19:21:26.435Z,12.43
2019-05-02T19:23:58.557Z,12.70
2019-05-02T19:26:30.202Z,12.40
2019-05-02T19:29:22.136Z,15.17
2019-05-02T19:31:54.862Z,14.53
2019-05-02T19:34:26.970Z,15.30
2019-05-02T19:37:03.091Z,16.77
2019-05-02T19:39:34.270Z,17.07
2019-05-02T19:42:06.448Z,18.40
2019-05-02T19:44:38.396Z,18.80
2019-05-02T19:47:15.703Z,18.90
2019-05-02T19:49:47.246Z,19.73
2019-05-02T19:52:16.182Z,19.20
2019-05-02T19:54:47.710Z,19.80
2019-05-02T19:57:24.753Z,20.90
2019-05-02T19:59:52.505Z,21.53
2019-05-02T20:02:23.995Z,21.00
2019-05-02T20:04:55.589Z,22.77
2019-05-02T20:07:27.185Z,22.17
2019-05-02T20:09:58.580Z,21.50
2019-05-02T20:12:30.105Z,20.30
2019-05-02T20:15:01.988Z,19.33
2019-05-02T20:17:33.187Z,19.97
2019-05-02T20:20:07.798Z,19.53
2019-05-02T20:22:40.973Z,20.40
2019-05-02T20:25:12.579Z,19.93
2019-05-02T20:27:44.350Z,18.80
2019-05-02T20:30:17.262Z,16.47
2019-05-02T20:32:48.539Z,16.23
2019-05-02T20:35:19.992Z,17.30
2019-05-02T20:37:52.569Z,16.40
2019-05-02T20:40:33.221Z,15.43
2019-05-02T20:43:05.587Z,15.43
2019-05-02T20:45:37.020Z,14.63
2019-05-02T20:48:08.513Z,14.93
2019-05-02T20:50:40.062Z,15.07
2019-05-02T20:53:12.831Z,16.00
2019-05-02T20:55:44.849Z,15.77
2019-05-02T20:58:16.216Z,15.27
2019-05-02T21:00:47.886Z,14.40
2019-05-02T21:03:19.175Z,13.90
2019-05-02T21:06:36.474Z,13.27
2019-05-02T21:09:18.656Z,12.80
2019-05-02T21:12:02.071Z,13.73
2019-05-02T21:14:35.720Z,13.60
2019-05-02T21:17:07.381Z,14.50
2019-05-02T21:19:38.730Z,14.03
2019-05-02T21:22:19.301Z,14.77
2019-05-02T21:24:52.694Z,13.53
2019-05-02T21:27:23.947Z,13.60
2019-05-02T21:29:55.412Z,13.80
2019-05-02T21:32:26.877Z,14.47
2019-05-02T21:34:58.374Z,15.03
2019-05-02T21:37:31.846Z,14.73
2019-05-02T21:40:02.995Z,14.50
2019-05-02T21:42:34.406Z,14.17
2019-05-02T21:45:06.222Z,15.13
2019-05-02T21:47:37.764Z,14.70
2019-05-02T21:50:25.104Z,14.50
2019-05-02T21:53:18.317Z,14.33
2019-05-02T21:55:59.654Z,14.97
2019-05-02T21:58:32.373Z,15.20
2019-05-02T22:01:09.838Z,14.13
2019-05-02T22:03:42.305Z,13.70
2019-05-02T22:06:14.752Z,12.77
2019-05-02T22:08:46.765Z,14.40
2019-05-02T22:11:18.152Z,13.53
2019-05-02T22:13:51.672Z,13.70
2019-05-02T22:16:23.043Z,13.13
2019-05-02T22:18:54.699Z,13.23
2019-05-02T22:21:26.394Z,14.30
2019-05-02T22:24:08.251Z,14.07
2019-05-02T22:26:32.741Z,14.43
2019-05-02T22:29:04.445Z,14.87
2019-05-02T22:31:35.982Z,13.57
2019-05-02T22:34:08.228Z,14.47
2019-05-02T22:36:39.606Z,14.93
2019-05-02T22:39:31.714Z,14.70
2019-05-02T22:42:04.697Z,16.20
2019-05-02T22:44:36.565Z,15.83
2019-05-02T22:47:08.934Z,16.57
2019-05-02T22:49:42.287Z,15.17
2019-05-02T22:52:14.394Z,15.40
2019-05-02T22:54:46.012Z,16.47
2019-05-02T22:57:17.423Z,16.83
2019-05-02T22:59:49.025Z,16.07
2019-05-02T23:02:21.977Z,16.80
2019-05-02T23:04:53.616Z,16.17
2019-05-02T23:07:25.625Z,15.87
2019-05-02T23:09:57.277Z,17.23
2019-05-02T23:12:28.625Z,17.10
2019-05-02T23:15:02.008Z,17.30
2019-05-02T23:17:33.679Z,17.80
2019-05-02T23:20:05.950Z,18.40
2019-05-02T23:22:38.117Z,17.90
2019-05-02T23:25:42.560Z,17.93
2019-05-02T23:28:17.798Z,16.83
2019-05-02T23:30:49.560Z,18.33
2019-05-02T23:33:23.395Z,18.30
2019-05-02T23:35:54.149Z,17.83
2019-05-02T23:38:25.878Z,18.60
2019-05-02T23:40:57.871Z,17.83
2019-05-02T23:43:29.293Z,18.13
2019-05-02T23:46:02.291Z,18.00
2019-05-02T23:48:33.660Z,17.50
2019-05-02T23:51:05.091Z,17.67
2019-05-02T23:53:36.483Z,18.13
2019-05-02T23:56:08.031Z,17.87
2019-05-02T23:58:39.488Z,18.37
